sensor_id;sensor_type;location;lat;lon;timestamp;P1;durP1;ratioP1;P2;durP2;ratioP2
32639;SDS011;19049;52.524;11.468;2022-12-24T00:03:54;5.47;;;4.10;;
32639;SDS011;19049;52.524;11.468;2022-12-24T00:06:44;6.47;;;4.67;;
32639;SDS011;19049;52.524;11.468;2022-12-24T00:09:09;7.17;;;4.50;;
32639;SDS011;19049;52.524;11.468;2022-12-24T00:11:38;6.13;;;4.40;;
32639;SDS011;19049;52.524;11.468;2022-12-24T00:14:03;6.27;;;4.63;;
32639;SDS011;19049;52.524;11.468;2022-12-24T00:16:29;6.53;;;4.30;;
32639;SDS011;19049;52.524;11.468;2022-12-24T00:18:55;7.27;;;5.00;;
32639;SDS011;19049;52.524;11.468;2022-12-24T00:21:20;5.17;;;3.50;;
32639;SDS011;19049;52.524;11.468;2022-12-24T00:23:46;5.87;;;3.97;;
32639;SDS011;19049;52.524;11.468;2022-12-24T00:26:12;6.70;;;4.50;;
32639;SDS011;19049;52.524;11.468;2022-12-24T00:28:38;6.33;;;4.47;;
32639;SDS011;19049;52.524;11.468;2022-12-24T00:31:12;6.40;;;4.57;;
32639;SDS011;19049;52.524;11.468;2022-12-24T00:33:41;6.20;;;4.13;;
32639;SDS011;19049;52.524;11.468;2022-12-24T00:36:07;6.10;;;4.03;;
32639;SDS011;19049;52.524;11.468;2022-12-24T00:38:33;5.50;;;4.03;;
32639;SDS011;19049;52.524;11.468;2022-12-24T00:41:00;6.40;;;3.90;;
32639;SDS011;19049;52.524;11.468;2022-12-24T00:43:27;6.53;;;3.77;;
32639;SDS011;19049;52.524;11.468;2022-12-24T00:45:53;5.47;;;3.67;;
32639;SDS011;19049;52.524;11.468;2022-12-24T00:48:18;4.47;;;3.37;;
32639;SDS011;19049;52.524;11.468;2022-12-24T00:50:44;4.93;;;3.80;;
32639;SDS011;19049;52.524;11.468;2022-12-24T00:53:10;6.47;;;4.40;;
32639;SDS011;19049;52.524;11.468;2022-12-24T00:55:36;5.63;;;3.90;;
32639;SDS011;19049;52.524;11.468;2022-12-24T00:58:01;6.77;;;3.83;;
32639;SDS011;19049;52.524;11.468;2022-12-24T01:00:27;4.47;;;3.60;;
32639;SDS011;19049;52.524;11.468;2022-12-24T01:02:53;4.13;;;3.20;;
32639;SDS011;19049;52.524;11.468;2022-12-24T01:05:18;5.87;;;4.40;;
32639;SDS011;19049;52.524;11.468;2022-12-24T01:07:45;5.77;;;3.90;;
32639;SDS011;19049;52.524;11.468;2022-12-24T01:10:12;7.13;;;4.03;;
32639;SDS011;19049;52.524;11.468;2022-12-24T01:12:38;6.00;;;3.90;;
32639;SDS011;19049;52.524;11.468;2022-12-24T01:15:05;5.17;;;3.40;;
32639;SDS011;19049;52.524;11.468;2022-12-24T01:17:32;5.07;;;3.50;;
32639;SDS011;19049;52.524;11.468;2022-12-24T01:19:58;5.20;;;3.53;;
32639;SDS011;19049;52.524;11.468;2022-12-24T01:22:24;4.93;;;3.33;;
32639;SDS011;19049;52.524;11.468;2022-12-24T01:24:50;4.77;;;3.07;;
32639;SDS011;19049;52.524;11.468;2022-12-24T01:27:15;6.07;;;3.60;;
32639;SDS011;19049;52.524;11.468;2022-12-24T01:29:41;5.20;;;3.20;;
32639;SDS011;19049;52.524;11.468;2022-12-24T01:32:06;4.83;;;3.57;;
32639;SDS011;19049;52.524;11.468;2022-12-24T01:34:32;4.60;;;3.20;;
32639;SDS011;19049;52.524;11.468;2022-12-24T01:36:58;4.13;;;3.20;;
32639;SDS011;19049;52.524;11.468;2022-12-24T01:39:23;6.03;;;4.17;;
32639;SDS011;19049;52.524;11.468;2022-12-24T01:41:49;4.13;;;3.00;;
32639;SDS011;19049;52.524;11.468;2022-12-24T01:44:34;4.87;;;3.60;;
32639;SDS011;19049;52.524;11.468;2022-12-24T01:49:32;5.33;;;3.60;;
32639;SDS011;19049;52.524;11.468;2022-12-24T01:52:58;5.57;;;3.83;;
32639;SDS011;19049;52.524;11.468;2022-12-24T01:54:56;5.90;;;3.30;;
32639;SDS011;19049;52.524;11.468;2022-12-24T01:57:28;6.10;;;3.83;;
32639;SDS011;19049;52.524;11.468;2022-12-24T01:59:57;4.43;;;3.40;;
32639;SDS011;19049;52.524;11.468;2022-12-24T02:02:26;4.60;;;3.50;;
32639;SDS011;19049;52.524;11.468;2022-12-24T02:04:55;4.53;;;3.13;;
32639;SDS011;19049;52.524;11.468;2022-12-24T02:07:25;6.83;;;3.70;;
32639;SDS011;19049;52.524;11.468;2022-12-24T02:09:58;5.57;;;3.90;;
32639;SDS011;19049;52.524;11.468;2022-12-24T02:12:29;6.07;;;4.13;;
32639;SDS011;19049;52.524;11.468;2022-12-24T02:14:58;6.07;;;4.13;;
32639;SDS011;19049;52.524;11.468;2022-12-24T02:20:13;6.47;;;4.40;;
32639;SDS011;19049;52.524;11.468;2022-12-24T02:22:57;5.50;;;4.20;;
32639;SDS011;19049;52.524;11.468;2022-12-24T02:25:54;5.47;;;4.00;;
32639;SDS011;19049;52.524;11.468;2022-12-24T02:31:20;6.20;;;4.30;;
32639;SDS011;19049;52.524;11.468;2022-12-24T02:40:00;7.73;;;5.33;;
32639;SDS011;19049;52.524;11.468;2022-12-24T02:42:34;5.73;;;3.93;;
32639;SDS011;19049;52.524;11.468;2022-12-24T02:45:08;5.43;;;3.77;;
32639;SDS011;19049;52.524;11.468;2022-12-24T02:47:34;5.33;;;3.60;;
32639;SDS011;19049;52.524;11.468;2022-12-24T02:50:01;5.90;;;3.67;;
32639;SDS011;19049;52.524;11.468;2022-12-24T02:52:38;5.33;;;3.43;;
32639;SDS011;19049;52.524;11.468;2022-12-24T02:57:52;5.57;;;3.90;;
32639;SDS011;19049;52.524;11.468;2022-12-24T03:04:30;3.97;;;3.23;;
32639;SDS011;19049;52.524;11.468;2022-12-24T03:06:59;5.47;;;3.10;;
32639;SDS011;19049;52.524;11.468;2022-12-24T03:12:20;3.97;;;3.07;;
32639;SDS011;19049;52.524;11.468;2022-12-24T03:14:52;4.93;;;3.47;;
32639;SDS011;19049;52.524;11.468;2022-12-24T03:17:18;6.10;;;4.10;;
32639;SDS011;19049;52.524;11.468;2022-12-24T03:19:44;7.00;;;4.23;;
32639;SDS011;19049;52.524;11.468;2022-12-24T03:22:11;5.37;;;3.90;;
32639;SDS011;19049;52.524;11.468;2022-12-24T03:24:38;5.07;;;3.93;;
32639;SDS011;19049;52.524;11.468;2022-12-24T03:27:04;5.40;;;3.67;;
32639;SDS011;19049;52.524;11.468;2022-12-24T03:29:33;5.13;;;3.80;;
32639;SDS011;19049;52.524;11.468;2022-12-24T03:32:00;4.93;;;3.67;;
32639;SDS011;19049;52.524;11.468;2022-12-24T03:34:27;4.13;;;3.30;;
32639;SDS011;19049;52.524;11.468;2022-12-24T03:36:54;3.80;;;2.83;;
32639;SDS011;19049;52.524;11.468;2022-12-24T03:39:20;4.40;;;3.17;;
32639;SDS011;19049;52.524;11.468;2022-12-24T03:41:46;2.90;;;2.47;;
32639;SDS011;19049;52.524;11.468;2022-12-24T03:44:12;4.70;;;3.10;;
32639;SDS011;19049;52.524;11.468;2022-12-24T03:46:38;4.03;;;3.23;;
32639;SDS011;19049;52.524;11.468;2022-12-24T03:49:04;4.53;;;3.47;;
32639;SDS011;19049;52.524;11.468;2022-12-24T03:51:29;3.60;;;2.90;;
32639;SDS011;19049;52.524;11.468;2022-12-24T03:53:57;3.93;;;3.13;;
32639;SDS011;19049;52.524;11.468;2022-12-24T03:56:23;3.23;;;2.70;;
32639;SDS011;19049;52.524;11.468;2022-12-24T03:58:50;5.17;;;2.93;;
32639;SDS011;19049;52.524;11.468;2022-12-24T04:01:16;3.47;;;2.90;;
32639;SDS011;19049;52.524;11.468;2022-12-24T04:03:41;3.93;;;3.20;;
32639;SDS011;19049;52.524;11.468;2022-12-24T04:06:08;3.27;;;2.57;;
32639;SDS011;19049;52.524;11.468;2022-12-24T04:08:35;3.63;;;2.60;;
32639;SDS011;19049;52.524;11.468;2022-12-24T04:11:03;3.50;;;2.67;;
32639;SDS011;19049;52.524;11.468;2022-12-24T04:13:30;2.97;;;2.30;;
32639;SDS011;19049;52.524;11.468;2022-12-24T04:15:59;3.37;;;2.70;;
32639;SDS011;19049;52.524;11.468;2022-12-24T04:18:26;4.20;;;2.53;;
32639;SDS011;19049;52.524;11.468;2022-12-24T04:20:52;3.67;;;2.63;;
32639;SDS011;19049;52.524;11.468;2022-12-24T04:23:18;4.37;;;2.80;;
32639;SDS011;19049;52.524;11.468;2022-12-24T04:25:44;3.40;;;2.57;;
32639;SDS011;19049;52.524;11.468;2022-12-24T04:28:09;3.43;;;2.43;;
32639;SDS011;19049;52.524;11.468;2022-12-24T04:30:36;3.27;;;2.43;;
32639;SDS011;19049;52.524;11.468;2022-12-24T04:33:02;3.93;;;2.60;;
32639;SDS011;19049;52.524;11.468;2022-12-24T04:35:28;3.47;;;2.40;;
32639;SDS011;19049;52.524;11.468;2022-12-24T04:37:53;3.10;;;2.47;;
32639;SDS011;19049;52.524;11.468;2022-12-24T04:40:19;3.23;;;2.40;;
32639;SDS011;19049;52.524;11.468;2022-12-24T04:42:44;3.50;;;2.60;;
32639;SDS011;19049;52.524;11.468;2022-12-24T04:45:10;2.43;;;2.17;;
32639;SDS011;19049;52.524;11.468;2022-12-24T04:47:36;3.37;;;2.60;;
32639;SDS011;19049;52.524;11.468;2022-12-24T04:50:01;3.20;;;2.27;;
32639;SDS011;19049;52.524;11.468;2022-12-24T04:52:27;2.80;;;2.00;;
32639;SDS011;19049;52.524;11.468;2022-12-24T04:54:53;2.87;;;2.20;;
32639;SDS011;19049;52.524;11.468;2022-12-24T04:57:18;2.20;;;1.90;;
32639;SDS011;19049;52.524;11.468;2022-12-24T04:59:45;2.60;;;2.10;;
32639;SDS011;19049;52.524;11.468;2022-12-24T05:02:10;2.43;;;2.13;;
32639;SDS011;19049;52.524;11.468;2022-12-24T05:04:36;2.50;;;1.80;;
32639;SDS011;19049;52.524;11.468;2022-12-24T05:07:02;2.60;;;2.00;;
32639;SDS011;19049;52.524;11.468;2022-12-24T05:09:27;2.73;;;1.97;;
32639;SDS011;19049;52.524;11.468;2022-12-24T05:11:53;3.20;;;2.47;;
32639;SDS011;19049;52.524;11.468;2022-12-24T05:14:18;2.47;;;2.03;;
32639;SDS011;19049;52.524;11.468;2022-12-24T05:16:44;2.67;;;2.13;;
32639;SDS011;19049;52.524;11.468;2022-12-24T05:19:10;2.03;;;1.63;;
32639;SDS011;19049;52.524;11.468;2022-12-24T05:21:35;1.83;;;1.57;;
32639;SDS011;19049;52.524;11.468;2022-12-24T05:24:01;2.10;;;1.70;;
32639;SDS011;19049;52.524;11.468;2022-12-24T05:26:47;2.30;;;1.80;;
32639;SDS011;19049;52.524;11.468;2022-12-24T05:29:15;2.23;;;1.63;;
32639;SDS011;19049;52.524;11.468;2022-12-24T05:31:41;2.40;;;1.83;;
32639;SDS011;19049;52.524;11.468;2022-12-24T05:34:09;2.50;;;2.13;;
32639;SDS011;19049;52.524;11.468;2022-12-24T05:36:35;1.93;;;1.57;;
32639;SDS011;19049;52.524;11.468;2022-12-24T05:39:01;2.50;;;1.90;;
32639;SDS011;19049;52.524;11.468;2022-12-24T05:41:26;1.83;;;1.60;;
32639;SDS011;19049;52.524;11.468;2022-12-24T05:43:52;2.07;;;1.70;;
32639;SDS011;19049;52.524;11.468;2022-12-24T05:46:19;2.20;;;1.30;;
32639;SDS011;19049;52.524;11.468;2022-12-24T05:48:46;1.50;;;1.30;;
32639;SDS011;19049;52.524;11.468;2022-12-24T05:51:13;2.30;;;2.00;;
32639;SDS011;19049;52.524;11.468;2022-12-24T05:53:39;2.00;;;1.60;;
32639;SDS011;19049;52.524;11.468;2022-12-24T05:56:06;1.90;;;1.60;;
32639;SDS011;19049;52.524;11.468;2022-12-24T05:58:37;2.87;;;2.30;;
32639;SDS011;19049;52.524;11.468;2022-12-24T06:01:03;2.57;;;1.90;;
32639;SDS011;19049;52.524;11.468;2022-12-24T06:03:29;2.50;;;1.60;;
32639;SDS011;19049;52.524;11.468;2022-12-24T06:06:09;1.83;;;1.60;;
32639;SDS011;19049;52.524;11.468;2022-12-24T06:08:36;1.90;;;1.50;;
32639;SDS011;19049;52.524;11.468;2022-12-24T06:11:03;1.97;;;1.63;;
32639;SDS011;19049;52.524;11.468;2022-12-24T06:13:30;1.63;;;1.50;;
32639;SDS011;19049;52.524;11.468;2022-12-24T06:15:57;1.70;;;1.50;;
32639;SDS011;19049;52.524;11.468;2022-12-24T06:18:24;2.00;;;1.67;;
32639;SDS011;19049;52.524;11.468;2022-12-24T06:20:50;2.03;;;1.30;;
32639;SDS011;19049;52.524;11.468;2022-12-24T06:23:17;1.70;;;1.30;;
32639;SDS011;19049;52.524;11.468;2022-12-24T06:25:43;1.60;;;1.43;;
32639;SDS011;19049;52.524;11.468;2022-12-24T06:28:08;1.43;;;1.33;;
32639;SDS011;19049;52.524;11.468;2022-12-24T06:30:34;1.63;;;1.20;;
32639;SDS011;19049;52.524;11.468;2022-12-24T06:32:59;1.30;;;1.10;;
32639;SDS011;19049;52.524;11.468;2022-12-24T06:35:25;1.90;;;1.67;;
32639;SDS011;19049;52.524;11.468;2022-12-24T06:37:51;1.87;;;1.50;;
32639;SDS011;19049;52.524;11.468;2022-12-24T06:40:16;2.17;;;1.40;;
32639;SDS011;19049;52.524;11.468;2022-12-24T06:42:42;1.70;;;1.47;;
32639;SDS011;19049;52.524;11.468;2022-12-24T06:45:08;1.70;;;1.40;;
32639;SDS011;19049;52.524;11.468;2022-12-24T06:47:34;1.40;;;1.23;;
32639;SDS011;19049;52.524;11.468;2022-12-24T06:49:59;1.77;;;1.50;;
32639;SDS011;19049;52.524;11.468;2022-12-24T06:52:25;1.80;;;1.40;;
32639;SDS011;19049;52.524;11.468;2022-12-24T06:54:51;1.87;;;1.40;;
32639;SDS011;19049;52.524;11.468;2022-12-24T06:57:16;2.23;;;1.40;;
32639;SDS011;19049;52.524;11.468;2022-12-24T06:59:42;1.60;;;1.17;;
32639;SDS011;19049;52.524;11.468;2022-12-24T07:02:08;1.97;;;1.57;;
32639;SDS011;19049;52.524;11.468;2022-12-24T07:04:34;2.10;;;1.60;;
32639;SDS011;19049;52.524;11.468;2022-12-24T07:06:59;2.03;;;1.53;;
32639;SDS011;19049;52.524;11.468;2022-12-24T07:09:25;2.17;;;1.80;;
32639;SDS011;19049;52.524;11.468;2022-12-24T07:11:50;2.30;;;1.80;;
32639;SDS011;19049;52.524;11.468;2022-12-24T07:14:16;3.07;;;1.70;;
32639;SDS011;19049;52.524;11.468;2022-12-24T07:16:42;1.80;;;1.60;;
32639;SDS011;19049;52.524;11.468;2022-12-24T07:19:07;1.90;;;1.70;;
32639;SDS011;19049;52.524;11.468;2022-12-24T07:21:33;3.47;;;2.37;;
32639;SDS011;19049;52.524;11.468;2022-12-24T07:23:58;3.00;;;2.40;;
32639;SDS011;19049;52.524;11.468;2022-12-24T07:26:24;2.50;;;2.20;;
32639;SDS011;19049;52.524;11.468;2022-12-24T07:28:50;2.50;;;2.13;;
32639;SDS011;19049;52.524;11.468;2022-12-24T07:31:15;3.43;;;2.80;;
32639;SDS011;19049;52.524;11.468;2022-12-24T07:33:41;4.40;;;2.77;;
32639;SDS011;19049;52.524;11.468;2022-12-24T07:36:17;3.63;;;2.83;;
32639;SDS011;19049;52.524;11.468;2022-12-24T07:38:45;3.53;;;2.83;;
32639;SDS011;19049;52.524;11.468;2022-12-24T07:41:12;5.00;;;3.20;;
32639;SDS011;19049;52.524;11.468;2022-12-24T07:43:38;3.30;;;2.87;;
32639;SDS011;19049;52.524;11.468;2022-12-24T07:46:04;4.03;;;2.90;;
32639;SDS011;19049;52.524;11.468;2022-12-24T07:48:30;3.83;;;3.03;;
32639;SDS011;19049;52.524;11.468;2022-12-24T07:50:57;3.67;;;3.10;;
32639;SDS011;19049;52.524;11.468;2022-12-24T07:53:32;3.73;;;2.77;;
32639;SDS011;19049;52.524;11.468;2022-12-24T07:55:58;3.40;;;2.80;;
32639;SDS011;19049;52.524;11.468;2022-12-24T08:05:56;3.80;;;3.23;;
32639;SDS011;19049;52.524;11.468;2022-12-24T08:12:23;4.80;;;4.30;;
32639;SDS011;19049;52.524;11.468;2022-12-24T08:25:49;3.80;;;2.97;;
32639;SDS011;19049;52.524;11.468;2022-12-24T08:31:42;4.97;;;3.33;;
32639;SDS011;19049;52.524;11.468;2022-12-24T08:34:13;3.30;;;2.77;;
32639;SDS011;19049;52.524;11.468;2022-12-24T08:36:41;3.30;;;3.00;;
32639;SDS011;19049;52.524;11.468;2022-12-24T08:39:08;4.97;;;3.40;;
32639;SDS011;19049;52.524;11.468;2022-12-24T08:41:34;4.47;;;3.50;;
32639;SDS011;19049;52.524;11.468;2022-12-24T08:44:00;4.50;;;2.93;;
32639;SDS011;19049;52.524;11.468;2022-12-24T08:46:26;4.47;;;3.37;;
32639;SDS011;19049;52.524;11.468;2022-12-24T08:48:51;6.57;;;3.60;;
32639;SDS011;19049;52.524;11.468;2022-12-24T08:51:17;6.60;;;3.77;;
32639;SDS011;19049;52.524;11.468;2022-12-24T08:53:43;5.27;;;3.73;;
32639;SDS011;19049;52.524;11.468;2022-12-24T08:56:09;6.80;;;3.57;;
32639;SDS011;19049;52.524;11.468;2022-12-24T08:58:36;9.73;;;4.10;;
32639;SDS011;19049;52.524;11.468;2022-12-24T09:01:18;8.23;;;4.37;;
32639;SDS011;19049;52.524;11.468;2022-12-24T09:03:56;7.23;;;3.97;;
32639;SDS011;19049;52.524;11.468;2022-12-24T09:29:58;15.93;;;4.30;;
32639;SDS011;19049;52.524;11.468;2022-12-24T09:47:18;11.83;;;3.90;;
32639;SDS011;19049;52.524;11.468;2022-12-24T09:53:41;8.70;;;3.60;;
32639;SDS011;19049;52.524;11.468;2022-12-24T09:56:38;14.17;;;3.67;;
32639;SDS011;19049;52.524;11.468;2022-12-24T09:59:59;12.90;;;3.57;;
32639;SDS011;19049;52.524;11.468;2022-12-24T10:40:42;11.23;;;3.87;;
32639;SDS011;19049;52.524;11.468;2022-12-24T10:43:45;12.70;;;3.50;;
32639;SDS011;19049;52.524;11.468;2022-12-24T10:52:43;18.63;;;4.40;;
32639;SDS011;19049;52.524;11.468;2022-12-24T10:56:15;11.70;;;4.03;;
32639;SDS011;19049;52.524;11.468;2022-12-24T10:59:21;13.97;;;3.60;;
32639;SDS011;19049;52.524;11.468;2022-12-24T11:08:37;13.43;;;4.33;;
32639;SDS011;19049;52.524;11.468;2022-12-24T11:11:33;13.27;;;4.07;;
32639;SDS011;19049;52.524;11.468;2022-12-24T11:14:10;13.20;;;3.50;;
32639;SDS011;19049;52.524;11.468;2022-12-24T11:17:00;14.80;;;4.60;;
32639;SDS011;19049;52.524;11.468;2022-12-24T11:19:29;10.63;;;3.27;;
32639;SDS011;19049;52.524;11.468;2022-12-24T11:22:16;19.00;;;4.10;;
32639;SDS011;19049;52.524;11.468;2022-12-24T11:33:53;13.20;;;4.00;;
32639;SDS011;19049;52.524;11.468;2022-12-24T11:36:26;14.97;;;3.63;;
32639;SDS011;19049;52.524;11.468;2022-12-24T11:39:48;11.53;;;3.30;;
32639;SDS011;19049;52.524;11.468;2022-12-24T11:42:36;7.50;;;2.60;;
32639;SDS011;19049;52.524;11.468;2022-12-24T11:45:26;12.53;;;3.73;;
32639;SDS011;19049;52.524;11.468;2022-12-24T11:48:26;12.63;;;3.23;;
32639;SDS011;19049;52.524;11.468;2022-12-24T11:51:27;11.97;;;3.30;;
32639;SDS011;19049;52.524;11.468;2022-12-24T11:54:10;16.43;;;3.27;;
32639;SDS011;19049;52.524;11.468;2022-12-24T11:56:51;14.13;;;3.73;;
32639;SDS011;19049;52.524;11.468;2022-12-24T11:59:39;14.67;;;4.03;;
32639;SDS011;19049;52.524;11.468;2022-12-24T12:05:12;13.47;;;3.73;;
32639;SDS011;19049;52.524;11.468;2022-12-24T12:07:45;14.63;;;3.60;;
32639;SDS011;19049;52.524;11.468;2022-12-24T12:10:22;17.50;;;4.40;;
32639;SDS011;19049;52.524;11.468;2022-12-24T12:13:01;12.87;;;4.07;;
32639;SDS011;19049;52.524;11.468;2022-12-24T12:15:34;8.30;;;3.63;;
32639;SDS011;19049;52.524;11.468;2022-12-24T12:18:06;14.57;;;3.43;;
32639;SDS011;19049;52.524;11.468;2022-12-24T12:20:41;12.90;;;3.77;;
32639;SDS011;19049;52.524;11.468;2022-12-24T12:25:59;8.43;;;3.53;;
32639;SDS011;19049;52.524;11.468;2022-12-24T12:28:33;14.90;;;4.10;;
32639;SDS011;19049;52.524;11.468;2022-12-24T12:33:44;8.23;;;3.60;;
32639;SDS011;19049;52.524;11.468;2022-12-24T12:36:14;13.37;;;4.50;;
32639;SDS011;19049;52.524;11.468;2022-12-24T12:38:45;16.70;;;4.80;;
32639;SDS011;19049;52.524;11.468;2022-12-24T12:43:52;18.57;;;6.20;;
32639;SDS011;19049;52.524;11.468;2022-12-24T12:46:32;13.53;;;5.27;;
32639;SDS011;19049;52.524;11.468;2022-12-24T12:49:05;12.93;;;4.87;;
32639;SDS011;19049;52.524;11.468;2022-12-24T12:51:59;12.63;;;5.13;;
32639;SDS011;19049;52.524;11.468;2022-12-24T12:57:30;8.93;;;3.67;;
32639;SDS011;19049;52.524;11.468;2022-12-24T13:00:01;5.67;;;2.90;;
32639;SDS011;19049;52.524;11.468;2022-12-24T13:05:59;6.67;;;2.53;;
32639;SDS011;19049;52.524;11.468;2022-12-24T13:13:59;11.87;;;3.33;;
32639;SDS011;19049;52.524;11.468;2022-12-24T13:16:39;5.87;;;2.57;;
32639;SDS011;19049;52.524;11.468;2022-12-24T13:21:55;12.50;;;3.07;;
32639;SDS011;19049;52.524;11.468;2022-12-24T13:24:21;9.17;;;2.67;;
32639;SDS011;19049;52.524;11.468;2022-12-24T13:27:03;12.57;;;3.23;;
32639;SDS011;19049;52.524;11.468;2022-12-24T13:29:52;8.17;;;2.60;;
32639;SDS011;19049;52.524;11.468;2022-12-24T13:34:50;9.10;;;3.03;;
32639;SDS011;19049;52.524;11.468;2022-12-24T13:42:51;8.67;;;3.40;;
32639;SDS011;19049;52.524;11.468;2022-12-24T13:50:39;7.17;;;3.13;;
32639;SDS011;19049;52.524;11.468;2022-12-24T13:53:20;11.17;;;3.30;;
32639;SDS011;19049;52.524;11.468;2022-12-24T13:55:51;13.93;;;3.60;;
32639;SDS011;19049;52.524;11.468;2022-12-24T13:58:23;9.60;;;3.43;;
32639;SDS011;19049;52.524;11.468;2022-12-24T14:00:51;12.63;;;4.33;;
32639;SDS011;19049;52.524;11.468;2022-12-24T14:03:23;9.67;;;3.50;;
32639;SDS011;19049;52.524;11.468;2022-12-24T14:05:57;9.73;;;3.23;;
32639;SDS011;19049;52.524;11.468;2022-12-24T14:08:27;10.20;;;2.63;;
32639;SDS011;19049;52.524;11.468;2022-12-24T14:16:16;10.60;;;3.40;;
32639;SDS011;19049;52.524;11.468;2022-12-24T14:18:43;6.63;;;2.70;;
32639;SDS011;19049;52.524;11.468;2022-12-24T14:21:24;7.53;;;2.77;;
32639;SDS011;19049;52.524;11.468;2022-12-24T14:23:56;6.97;;;2.50;;
32639;SDS011;19049;52.524;11.468;2022-12-24T14:26:29;5.33;;;2.27;;
32639;SDS011;19049;52.524;11.468;2022-12-24T14:29:14;8.70;;;3.17;;
32639;SDS011;19049;52.524;11.468;2022-12-24T14:31:53;6.23;;;2.40;;
32639;SDS011;19049;52.524;11.468;2022-12-24T14:34:20;7.83;;;2.70;;
32639;SDS011;19049;52.524;11.468;2022-12-24T14:36:46;10.13;;;2.70;;
32639;SDS011;19049;52.524;11.468;2022-12-24T14:39:20;4.90;;;2.73;;
32639;SDS011;19049;52.524;11.468;2022-12-24T14:50:33;8.73;;;2.60;;
32639;SDS011;19049;52.524;11.468;2022-12-24T14:55:40;11.03;;;3.00;;
32639;SDS011;19049;52.524;11.468;2022-12-24T15:00:58;10.93;;;3.00;;
32639;SDS011;19049;52.524;11.468;2022-12-24T15:03:27;7.63;;;3.37;;
32639;SDS011;19049;52.524;11.468;2022-12-24T15:05:59;6.73;;;2.60;;
32639;SDS011;19049;52.524;11.468;2022-12-24T15:08:35;7.40;;;3.03;;
32639;SDS011;19049;52.524;11.468;2022-12-24T15:11:06;8.27;;;2.70;;
32639;SDS011;19049;52.524;11.468;2022-12-24T15:13:35;6.53;;;2.80;;
32639;SDS011;19049;52.524;11.468;2022-12-24T15:16:07;8.70;;;2.97;;
32639;SDS011;19049;52.524;11.468;2022-12-24T15:18:35;5.97;;;2.60;;
32639;SDS011;19049;52.524;11.468;2022-12-24T15:21:20;9.17;;;3.17;;
32639;SDS011;19049;52.524;11.468;2022-12-24T15:23:54;8.13;;;2.80;;
32639;SDS011;19049;52.524;11.468;2022-12-24T15:26:22;7.80;;;3.30;;
32639;SDS011;19049;52.524;11.468;2022-12-24T15:28:56;8.13;;;3.10;;
32639;SDS011;19049;52.524;11.468;2022-12-24T15:31:24;5.87;;;3.03;;
32639;SDS011;19049;52.524;11.468;2022-12-24T15:33:52;12.03;;;4.47;;
32639;SDS011;19049;52.524;11.468;2022-12-24T15:38:56;9.30;;;3.73;;
32639;SDS011;19049;52.524;11.468;2022-12-24T15:41:26;9.17;;;3.40;;
32639;SDS011;19049;52.524;11.468;2022-12-24T15:43:58;7.73;;;3.50;;
32639;SDS011;19049;52.524;11.468;2022-12-24T15:46:27;10.13;;;4.17;;
32639;SDS011;19049;52.524;11.468;2022-12-24T15:49:00;6.10;;;3.80;;
32639;SDS011;19049;52.524;11.468;2022-12-24T15:51:34;8.80;;;3.57;;
32639;SDS011;19049;52.524;11.468;2022-12-24T15:54:05;6.90;;;3.53;;
32639;SDS011;19049;52.524;11.468;2022-12-24T15:56:41;7.40;;;3.47;;
32639;SDS011;19049;52.524;11.468;2022-12-24T16:01:42;7.13;;;2.90;;
32639;SDS011;19049;52.524;11.468;2022-12-24T16:04:15;6.67;;;2.87;;
32639;SDS011;19049;52.524;11.468;2022-12-24T16:06:59;4.63;;;2.53;;
32639;SDS011;19049;52.524;11.468;2022-12-24T16:12:19;8.10;;;3.50;;
32639;SDS011;19049;52.524;11.468;2022-12-24T16:14:57;4.97;;;3.23;;
32639;SDS011;19049;52.524;11.468;2022-12-24T16:17:26;7.40;;;2.80;;
32639;SDS011;19049;52.524;11.468;2022-12-24T16:19:57;8.53;;;3.13;;
32639;SDS011;19049;52.524;11.468;2022-12-24T16:22:26;4.93;;;2.53;;
32639;SDS011;19049;52.524;11.468;2022-12-24T16:25:23;5.57;;;2.40;;
32639;SDS011;19049;52.524;11.468;2022-12-24T16:27:51;5.93;;;2.57;;
32639;SDS011;19049;52.524;11.468;2022-12-24T16:30:18;6.40;;;2.60;;
32639;SDS011;19049;52.524;11.468;2022-12-24T16:32:45;3.73;;;2.30;;
32639;SDS011;19049;52.524;11.468;2022-12-24T16:35:25;4.13;;;2.17;;
32639;SDS011;19049;52.524;11.468;2022-12-24T16:37:52;4.37;;;2.10;;
32639;SDS011;19049;52.524;11.468;2022-12-24T16:40:18;4.67;;;2.10;;
32639;SDS011;19049;52.524;11.468;2022-12-24T16:42:44;5.77;;;1.97;;
32639;SDS011;19049;52.524;11.468;2022-12-24T16:45:28;5.47;;;1.67;;
32639;SDS011;19049;52.524;11.468;2022-12-24T16:47:59;2.53;;;1.60;;
32639;SDS011;19049;52.524;11.468;2022-12-24T16:50:25;3.20;;;1.53;;
32639;SDS011;19049;52.524;11.468;2022-12-24T16:52:51;5.73;;;1.83;;
32639;SDS011;19049;52.524;11.468;2022-12-24T16:55:17;3.17;;;1.60;;
32639;SDS011;19049;52.524;11.468;2022-12-24T16:57:43;2.03;;;1.33;;
32639;SDS011;19049;52.524;11.468;2022-12-24T17:00:16;4.70;;;1.37;;
32639;SDS011;19049;52.524;11.468;2022-12-24T17:02:44;2.33;;;1.50;;
32639;SDS011;19049;52.524;11.468;2022-12-24T17:05:11;2.90;;;1.80;;
32639;SDS011;19049;52.524;11.468;2022-12-24T17:07:38;2.67;;;1.27;;
32639;SDS011;19049;52.524;11.468;2022-12-24T17:10:10;1.83;;;1.20;;
32639;SDS011;19049;52.524;11.468;2022-12-24T17:12:37;3.20;;;1.33;;
32639;SDS011;19049;52.524;11.468;2022-12-24T17:15:06;3.17;;;1.40;;
32639;SDS011;19049;52.524;11.468;2022-12-24T17:17:34;2.83;;;1.10;;
32639;SDS011;19049;52.524;11.468;2022-12-24T17:20:00;6.03;;;1.20;;
32639;SDS011;19049;52.524;11.468;2022-12-24T17:22:30;2.50;;;1.40;;
32639;SDS011;19049;52.524;11.468;2022-12-24T17:24:56;3.50;;;1.20;;
32639;SDS011;19049;52.524;11.468;2022-12-24T17:27:22;3.20;;;1.37;;
32639;SDS011;19049;52.524;11.468;2022-12-24T17:29:50;3.57;;;1.27;;
32639;SDS011;19049;52.524;11.468;2022-12-24T17:32:18;4.13;;;1.70;;
32639;SDS011;19049;52.524;11.468;2022-12-24T17:34:44;4.63;;;1.50;;
32639;SDS011;19049;52.524;11.468;2022-12-24T17:37:09;4.33;;;1.70;;
32639;SDS011;19049;52.524;11.468;2022-12-24T17:39:37;3.80;;;1.43;;
32639;SDS011;19049;52.524;11.468;2022-12-24T17:42:03;3.97;;;1.40;;
32639;SDS011;19049;52.524;11.468;2022-12-24T17:44:29;4.30;;;1.40;;
32639;SDS011;19049;52.524;11.468;2022-12-24T17:46:54;3.63;;;1.97;;
32639;SDS011;19049;52.524;11.468;2022-12-24T17:49:20;4.23;;;1.80;;
32639;SDS011;19049;52.524;11.468;2022-12-24T17:51:46;3.70;;;1.63;;
32639;SDS011;19049;52.524;11.468;2022-12-24T17:54:13;3.80;;;1.70;;
32639;SDS011;19049;52.524;11.468;2022-12-24T17:56:39;6.67;;;1.70;;
32639;SDS011;19049;52.524;11.468;2022-12-24T17:59:05;2.70;;;1.87;;
32639;SDS011;19049;52.524;11.468;2022-12-24T18:01:30;3.37;;;1.30;;
32639;SDS011;19049;52.524;11.468;2022-12-24T18:04:00;4.70;;;1.50;;
32639;SDS011;19049;52.524;11.468;2022-12-24T18:06:27;5.77;;;1.57;;
32639;SDS011;19049;52.524;11.468;2022-12-24T18:08:53;4.47;;;1.70;;
32639;SDS011;19049;52.524;11.468;2022-12-24T18:13:51;7.83;;;2.23;;
32639;SDS011;19049;52.524;11.468;2022-12-24T18:16:19;4.43;;;1.83;;
32639;SDS011;19049;52.524;11.468;2022-12-24T18:18:45;4.73;;;1.70;;
32639;SDS011;19049;52.524;11.468;2022-12-24T18:21:12;3.73;;;1.57;;
32639;SDS011;19049;52.524;11.468;2022-12-24T18:23:42;3.33;;;1.50;;
32639;SDS011;19049;52.524;11.468;2022-12-24T18:26:09;4.60;;;1.33;;
32639;SDS011;19049;52.524;11.468;2022-12-24T18:28:36;5.63;;;1.60;;
32639;SDS011;19049;52.524;11.468;2022-12-24T18:31:06;2.07;;;1.30;;
32639;SDS011;19049;52.524;11.468;2022-12-24T18:33:37;3.07;;;1.40;;
32639;SDS011;19049;52.524;11.468;2022-12-24T18:36:05;2.67;;;1.50;;